createdAt,value
2018-07-28T00:00:19.275Z,34.3
2018-07-28T00:01:21.448Z,34.5
2018-07-28T00:02:23.635Z,34.5
2018-07-28T00:03:25.547Z,34.6
2018-07-28T00:04:27.443Z,34.4
2018-07-28T00:05:29.647Z,34.4
2018-07-28T00:06:31.821Z,34.4
2018-07-28T00:07:34.283Z,34.3
2018-07-28T00:08:35.976Z,34.4
2018-07-28T00:09:37.906Z,34.6
2018-07-28T00:10:40.402Z,34.4
2018-07-28T00:11:42.910Z,34.3
2018-07-28T00:12:45.350Z,34.5
2018-07-28T00:13:47.827Z,34.5
2018-07-28T00:14:49.512Z,34.4
2018-07-28T00:15:51.707Z,34.5
2018-07-28T00:16:53.890Z,34.5
2018-07-28T00:17:56.080Z,34.5
2018-07-28T00:18:58.254Z,34.4
2018-07-28T00:20:00.698Z,34.5
2018-07-28T00:21:02.619Z,34.5
2018-07-28T00:22:04.763Z,34.4
2018-07-28T00:23:06.934Z,34.3
2018-07-28T00:24:09.385Z,34.5
2018-07-28T00:25:11.571Z,34.5
2018-07-28T00:26:14.041Z,34.6
2018-07-28T00:27:15.643Z,34.5
2018-07-28T00:28:17.802Z,34.5
2018-07-28T00:29:20.242Z,34.6
2018-07-28T00:30:22.166Z,34.5
2018-07-28T00:31:24.623Z,34.6
2018-07-28T00:32:26.531Z,34.4
2018-07-28T00:33:28.434Z,34.4
2018-07-28T00:34:30.620Z,34.5
2018-07-28T00:35:33.074Z,34.5
2018-07-28T00:36:35.256Z,34.6
2018-07-28T00:37:37.438Z,34.5
2018-07-28T00:38:39.636Z,34.5
2018-07-28T00:39:41.527Z,34.5
2018-07-28T00:40:43.728Z,34.4
2018-07-28T00:41:45.652Z,34.5
2018-07-28T00:42:47.819Z,34.5
2018-07-28T00:43:49.996Z,34.5
2018-07-28T00:44:52.144Z,34.4
2018-07-28T00:45:54.588Z,34.5
2018-07-28T00:46:57.030Z,34.5
2018-07-28T00:47:59.201Z,34.7
2018-07-28T00:49:01.655Z,34.5
2018-07-28T00:50:04.118Z,34.6
2018-07-28T00:51:06.059Z,34.6
2018-07-28T00:52:08.226Z,34.4
2018-07-28T00:53:10.684Z,34.6
2018-07-28T00:54:13.131Z,34.6
2018-07-28T00:55:15.391Z,34.4
2018-07-28T00:56:17.563Z,34.5
2018-07-28T00:57:19.760Z,34.5
2018-07-28T00:58:22.206Z,34.7
2018-07-28T00:59:24.093Z,34.5
2018-07-28T01:00:26.547Z,34.5
2018-07-28T01:01:28.441Z,34.5
2018-07-28T01:02:30.100Z,34.6
2018-07-28T01:03:32.276Z,34.6
2018-07-28T01:04:34.739Z,34.5
2018-07-28T01:05:37.185Z,34.6
2018-07-28T01:06:38.836Z,34.6
2018-07-28T01:07:41.011Z,34.6
2018-07-28T01:08:43.456Z,34.5
2018-07-28T01:09:45.899Z,34.6
2018-07-28T01:10:48.067Z,34.5
2018-07-28T01:11:49.707Z,34.5
2018-07-28T01:12:51.585Z,34.6
2018-07-28T01:13:54.024Z,34.5
2018-07-28T01:14:56.228Z,34.4
2018-07-28T01:15:58.390Z,34.5
2018-07-28T01:17:00.569Z,34.5
2018-07-28T01:18:02.539Z,34.6
2018-07-28T01:19:04.976Z,34.6
2018-07-28T01:20:07.429Z,34.5
2018-07-28T01:21:09.306Z,34.4
2018-07-28T01:22:11.747Z,34.6
2018-07-28T01:23:13.885Z,34.5
2018-07-28T01:24:16.064Z,34.5
2018-07-28T01:25:18.245Z,34.7
2018-07-28T01:26:20.428Z,34.7
2018-07-28T01:27:22.322Z,34.6
2018-07-28T01:28:24.496Z,34.5
2018-07-28T01:29:26.675Z,34.4
2018-07-28T01:30:28.857Z,34.6
2018-07-28T01:31:31.319Z,34.6
2018-07-28T01:32:32.934Z,34.6
2018-07-28T01:33:35.376Z,34.5
2018-07-28T01:34:37.831Z,34.4
2018-07-28T01:35:40.020Z,34.4
2018-07-28T01:36:42.457Z,34.6
2018-07-28T01:37:44.916Z,34.6
2018-07-28T01:38:47.087Z,34.7
2018-07-28T01:39:49.280Z,34.5
2018-07-28T01:40:51.722Z,34.5
2018-07-28T01:41:53.898Z,34.5
2018-07-28T01:42:56.347Z,34.5
2018-07-28T01:43:58.521Z,34.5
2018-07-28T01:45:00.964Z,34.6
2018-07-28T01:46:03.397Z,34.6
2018-07-28T01:47:05.539Z,34.6
2018-07-28T01:48:07.727Z,34.7
2018-07-28T01:49:09.357Z,34.5
2018-07-28T01:50:11.540Z,34.6
2018-07-28T01:51:13.707Z,34.6
2018-07-28T01:52:16.158Z,34.6
2018-07-28T01:53:18.608Z,34.6
2018-07-28T01:54:21.048Z,34.7
2018-07-28T01:55:23.228Z,34.5
2018-07-28T01:56:25.681Z,34.6
2018-07-28T01:57:28.142Z,34.7
2018-07-28T01:58:30.335Z,34.5
2018-07-28T01:59:31.977Z,34.5
2018-07-28T02:00:33.580Z,34.6
2018-07-28T02:01:35.486Z,34.6
2018-07-28T02:02:37.402Z,34.5
2018-07-28T02:03:39.854Z,34.5
2018-07-28T02:04:42.290Z,34.6
2018-07-28T02:05:44.744Z,34.6
2018-07-28T02:06:47.202Z,34.7
2018-07-28T02:07:49.385Z,34.6
2018-07-28T02:08:51.814Z,34.6
2018-07-28T02:09:54.265Z,34.6
2018-07-28T02:10:56.706Z,34.6
2018-07-28T02:11:58.612Z,34.6
2018-07-28T02:13:01.064Z,34.6
2018-07-28T02:14:03.239Z,34.5
2018-07-28T02:15:05.122Z,34.5
2018-07-28T02:16:07.578Z,34.5
2018-07-28T02:17:10.018Z,34.7
2018-07-28T02:18:12.481Z,34.6
2018-07-28T02:19:14.949Z,34.5
2018-07-28T02:20:17.128Z,34.7
2018-07-28T02:21:19.044Z,34.5
2018-07-28T02:22:21.213Z,34.6
2018-07-28T02:23:23.140Z,34.6
2018-07-28T02:24:25.320Z,34.6
2018-07-28T02:25:27.497Z,34.7
2018-07-28T02:26:29.676Z,34.6
2018-07-28T02:27:32.125Z,34.7
2018-07-28T02:28:34.568Z,34.6
2018-07-28T02:29:36.472Z,34.6
2018-07-28T02:30:38.917Z,34.6
2018-07-28T02:31:41.371Z,34.5
2018-07-28T02:32:43.565Z,34.6
2018-07-28T02:33:45.475Z,34.5
2018-07-28T02:34:47.628Z,34.5
2018-07-28T02:35:49.836Z,34.6
2018-07-28T02:36:52.077Z,34.6
2018-07-28T02:37:54.521Z,34.7
2018-07-28T02:38:56.685Z,34.7
2018-07-28T02:39:58.605Z,34.5
2018-07-28T02:41:00.788Z,34.7
2018-07-28T02:42:02.979Z,34.6
2018-07-28T02:43:04.622Z,34.6
2018-07-28T02:44:06.517Z,34.7
2018-07-28T02:45:08.959Z,34.7
2018-07-28T02:46:11.599Z,34.7
2018-07-28T02:47:14.041Z,34.7
2018-07-28T02:48:16.201Z,34.7
2018-07-28T02:49:17.843Z,34.6
2018-07-28T02:50:20.019Z,34.6
2018-07-28T02:51:22.162Z,34.6
2018-07-28T02:52:24.333Z,34.7
2018-07-28T02:53:26.773Z,34.5
2018-07-28T02:54:28.931Z,34.6
2018-07-28T02:55:31.379Z,34.6
2018-07-28T02:56:33.816Z,34.7
2018-07-28T02:57:35.991Z,34.6
2018-07-28T02:58:38.158Z,34.6
2018-07-28T02:59:40.058Z,34.7
2018-07-28T03:00:42.247Z,34.6
2018-07-28T03:01:44.425Z,34.5
2018-07-28T03:02:46.337Z,34.5
2018-07-28T03:03:48.817Z,34.6
2018-07-28T03:04:50.957Z,34.6
2018-07-28T03:05:52.866Z,34.7
2018-07-28T03:06:55.023Z,34.6
2018-07-28T03:07:57.468Z,34.4
2018-07-28T03:08:59.662Z,34.5
2018-07-28T03:10:02.112Z,34.5
2018-07-28T03:11:04.560Z,34.7
2018-07-28T03:12:06.758Z,34.6
2018-07-28T03:13:08.917Z,34.5
2018-07-28T03:14:11.359Z,34.6
2018-07-28T03:15:12.703Z,34.4
2018-07-28T03:16:15.160Z,34.5
2018-07-28T03:17:17.328Z,34.5
2018-07-28T03:18:19.514Z,34.5
2018-07-28T03:19:21.961Z,34.5
2018-07-28T03:20:23.852Z,34.6
2018-07-28T03:21:25.733Z,34.3
2018-07-28T03:22:28.198Z,34.4
2018-07-28T03:23:30.388Z,34.5
2018-07-28T03:24:32.579Z,34.4
2018-07-28T03:25:34.758Z,34.4
2018-07-28T03:26:36.929Z,34.4
2018-07-28T03:27:39.381Z,34.3
2018-07-28T03:28:41.289Z,34.4
2018-07-28T03:29:43.206Z,34.4
2018-07-28T03:30:45.662Z,34.4
2018-07-28T03:31:48.115Z,34.4
2018-07-28T03:32:50.292Z,34.4
2018-07-28T03:33:52.734Z,34.3
2018-07-28T03:34:54.349Z,34.4
2018-07-28T03:35:56.787Z,34.5
2018-07-28T03:36:58.968Z,34.4
2018-07-28T03:38:01.122Z,34.4
2018-07-28T03:39:03.264Z,34.4
2018-07-28T03:40:04.889Z,34.5
2018-07-28T03:41:06.789Z,34.4
2018-07-28T03:42:09.240Z,34.4
2018-07-28T03:43:11.678Z,34.5
2018-07-28T03:44:13.849Z,34.5
2018-07-28T03:45:16.305Z,34.4
2018-07-28T03:46:18.235Z,34.3
2018-07-28T03:47:20.129Z,34.3
2018-07-28T03:48:22.593Z,34.3
2018-07-28T03:49:25.153Z,34.2
2018-07-28T03:50:27.309Z,34.4
2018-07-28T03:51:29.488Z,34.4
2018-07-28T03:52:31.941Z,34.2
2018-07-28T03:53:34.125Z,34.3
2018-07-28T03:54:36.576Z,34.3
2018-07-28T03:55:39.027Z,34.4
2018-07-28T03:56:40.916Z,34.4
2018-07-28T03:57:42.835Z,34.3
2018-07-28T03:58:45.015Z,34.2
2018-07-28T03:59:47.187Z,34.4
2018-07-28T04:00:49.393Z,34.4
2018-07-28T04:01:51.829Z,34.4
2018-07-28T04:02:54.003Z,34.3
2018-07-28T04:03:56.451Z,34.3
2018-07-28T04:04:58.365Z,34.4
2018-07-28T04:06:00.544Z,34.3
2018-07-28T04:07:02.732Z,34.4
2018-07-28T04:08:04.915Z,34.3
2018-07-28T04:09:06.841Z,34.3
2018-07-28T04:10:09.289Z,34.3
2018-07-28T04:11:11.753Z,34.3
2018-07-28T04:12:13.925Z,34.3
2018-07-28T04:13:15.793Z,34.3
2018-07-28T04:14:18.354Z,34.3
2018-07-28T04:15:20.276Z,34.1
2018-07-28T04:16:22.192Z,34.3
2018-07-28T04:17:24.642Z,34.3
2018-07-28T04:18:27.098Z,34.2
2018-07-28T04:19:29.550Z,34.2
2018-07-28T04:20:31.513Z,34.2
2018-07-28T04:21:33.441Z,34.2
2018-07-28T04:22:35.637Z,34.3
2018-07-28T04:23:37.594Z,34.3
2018-07-28T04:24:39.252Z,34.1
2018-07-28T04:25:40.889Z,34.2
2018-07-28T04:26:43.366Z,34.3
2018-07-28T04:27:45.538Z,34.3
2018-07-28T04:28:47.711Z,34.1
2018-07-28T04:29:50.163Z,34.3
2018-07-28T04:30:52.603Z,34.2
2018-07-28T04:31:55.045Z,34.3
2018-07-28T04:32:57.244Z,34.1
2018-07-28T04:33:59.436Z,34.1
2018-07-28T04:35:01.618Z,34.4
2018-07-28T04:36:04.061Z,34.3
2018-07-28T04:37:06.327Z,34.3
2018-07-28T04:38:08.877Z,34.2
2018-07-28T04:39:11.332Z,34.3
2018-07-28T04:40:13.500Z,34.2
2018-07-28T04:41:15.952Z,34.3
2018-07-28T04:42:18.146Z,34.2
2018-07-28T04:43:19.785Z,34.2
2018-07-28T04:44:21.737Z,34.2
2018-07-28T04:45:24.185Z,34.2
2018-07-28T04:46:26.654Z,34.4
2018-07-28T04:47:29.100Z,34.2
2018-07-28T04:48:31.018Z,34.2
2018-07-28T04:49:33.190Z,34.3
2018-07-28T04:50:35.657Z,34.3
2018-07-28T04:51:38.101Z,34.3
2018-07-28T04:52:40.598Z,34.2
2018-07-28T04:53:43.051Z,34.2
2018-07-28T04:54:45.222Z,34.2
2018-07-28T04:55:47.407Z,34.3
2018-07-28T04:56:49.868Z,34.3
2018-07-28T04:57:52.040Z,34.2
2018-07-28T04:58:54.488Z,34.3
2018-07-28T04:59:56.937Z,34.3
2018-07-28T05:00:58.902Z,34.3
2018-07-28T05:02:01.035Z,34.3
2018-07-28T05:03:03.208Z,34.2
2018-07-28T05:04:05.122Z,34.3
2018-07-28T05:05:07.319Z,34.3
2018-07-28T05:06:09.489Z,34.4
2018-07-28T05:07:11.675Z,34.2
2018-07-28T05:08:14.239Z,34.3
2018-07-28T05:09:16.686Z,34.3
2018-07-28T05:10:18.876Z,34.4
2018-07-28T05:11:20.769Z,34.2
2018-07-28T05:12:23.217Z,34.4
2018-07-28T05:13:25.668Z,34.3
2018-07-28T05:14:28.129Z,34.3
2018-07-28T05:15:30.593Z,34.4
2018-07-28T05:16:32.762Z,34.3
2018-07-28T05:17:35.207Z,34.2
2018-07-28T05:18:37.655Z,34.3
2018-07-28T05:19:39.822Z,34.1
2018-07-28T05:20:41.793Z,34.3
2018-07-28T05:21:43.713Z,34.3
2018-07-28T05:22:45.884Z,34.4
2018-07-28T05:23:47.887Z,34.3
2018-07-28T05:24:49.983Z,34.2
2018-07-28T05:25:51.874Z,34.3
2018-07-28T05:26:54.338Z,34.3
2018-07-28T05:27:56.498Z,34.5
2018-07-28T05:28:58.686Z,34.1
2018-07-28T05:30:00.592Z,34.3
2018-07-28T05:31:02.465Z,34.2
2018-07-28T05:32:04.368Z,34.1
2018-07-28T05:33:06.828Z,34.3
2018-07-28T05:34:09.004Z,34.3
2018-07-28T05:35:10.908Z,34.2
2018-07-28T05:36:13.118Z,34.3
2018-07-28T05:37:14.852Z,34.3
2018-07-28T05:38:17.547Z,34.3
2018-07-28T05:39:19.696Z,34.3
2018-07-28T05:40:21.611Z,34.3
2018-07-28T05:41:24.063Z,34.1
2018-07-28T05:42:26.571Z,34.3
2018-07-28T05:43:28.782Z,34.3
2018-07-28T05:44:30.661Z,34.3
2018-07-28T05:45:33.104Z,34.2
2018-07-28T05:46:35.286Z,34.3
2018-07-28T05:47:36.900Z,34.2
2018-07-28T05:48:39.067Z,34.3
2018-07-28T05:49:40.968Z,34.2
2018-07-28T05:50:43.157Z,34.4
2018-07-28T05:51:45.338Z,34.3
2018-07-28T05:52:47.795Z,34.2
2018-07-28T05:53:50.496Z,34.3
2018-07-28T05:54:52.436Z,34.3
2018-07-28T05:55:54.347Z,34.2
2018-07-28T05:56:56.795Z,34.1
2018-07-28T05:57:58.978Z,34.1
2018-07-28T05:59:01.423Z,34.3
2018-07-28T06:00:04.018Z,34.4
2018-07-28T06:01:06.296Z,34.2
2018-07-28T06:02:07.962Z,34.2
2018-07-28T06:03:10.293Z,34.1
2018-07-28T06:04:12.468Z,34.3
2018-07-28T06:05:14.367Z,34.3
2018-07-28T06:06:16.554Z,34.3
2018-07-28T06:07:18.429Z,34.3
2018-07-28T06:08:20.592Z,34.3
2018-07-28T06:09:23.058Z,34.3
2018-07-28T06:10:25.244Z,34.2
2018-07-28T06:11:26.594Z,34.3
2018-07-28T06:12:28.776Z,34.4
2018-07-28T06:13:30.397Z,34.3
2018-07-28T06:14:32.586Z,34.2
2018-07-28T06:15:35.045Z,34.3
2018-07-28T06:16:37.487Z,34.2
2018-07-28T06:17:39.121Z,34.2
2018-07-28T06:18:41.570Z,34.2
2018-07-28T06:19:44.032Z,34.2
2018-07-28T06:20:46.479Z,34.2
2018-07-28T06:21:48.650Z,34.1
2018-07-28T06:22:50.848Z,34.2
2018-07-28T06:23:53.288Z,34.2
2018-07-28T06:24:55.748Z,34.3
2018-07-28T06:25:58.301Z,34.1
2018-07-28T06:27:00.968Z,34.2
2018-07-28T06:28:02.860Z,34.1
2018-07-28T06:29:05.029Z,34.2
2018-07-28T06:30:07.233Z,34.2
2018-07-28T06:31:09.704Z,34.2
2018-07-28T06:32:11.967Z,34.2
2018-07-28T06:33:14.178Z,34.2
2018-07-28T06:34:15.868Z,34.2
2018-07-28T06:35:18.049Z,34.1
2018-07-28T06:36:20.500Z,34.1
2018-07-28T06:37:22.721Z,34.3
2018-07-28T06:38:25.208Z,34.3
2018-07-28T06:39:27.135Z,34.1
2018-07-28T06:40:29.638Z,34.2
2018-07-28T06:41:31.825Z,34.3
2018-07-28T06:42:34.277Z,34.2
2018-07-28T06:43:36.456Z,34.3
2018-07-28T06:44:38.634Z,34.3
2018-07-28T06:45:40.815Z,34.3
2018-07-28T06:46:42.994Z,34.2
2018-07-28T06:47:45.446Z,34.2
2018-07-28T06:48:47.636Z,34
2018-07-28T06:49:49.818Z,34.2
2018-07-28T06:50:52.272Z,34.1
2018-07-28T06:51:54.433Z,34.1
2018-07-28T06:52:56.347Z,34
2018-07-28T06:53:58.241Z,34.2
2018-07-28T06:55:00.713Z,34.1
2018-07-28T06:56:03.267Z,34
2018-07-28T06:57:05.450Z,34.1
2018-07-28T06:58:07.941Z,34.2
2018-07-28T06:59:10.437Z,34.1
2018-07-28T07:00:12.630Z,34.1
2018-07-28T07:01:14.775Z,34.1
2018-07-28T07:02:16.688Z,34.1
2018-07-28T07:03:19.135Z,34.1
2018-07-28T07:04:21.601Z,34.2
2018-07-28T07:05:24.050Z,34.1
2018-07-28T07:06:25.936Z,34.1
2018-07-28T07:07:28.116Z,34.2
2018-07-28T07:08:30.325Z,34
2018-07-28T07:09:32.777Z,34.1
2018-07-28T07:10:34.687Z,34
2018-07-28T07:11:36.956Z,34.1
2018-07-28T07:12:38.874Z,34
2018-07-28T07:13:41.251Z,34.1
2018-07-28T07:14:43.419Z,34.1
2018-07-28T07:15:44.766Z,34
2018-07-28T07:16:47.212Z,34.1
2018-07-28T07:17:49.409Z,34.1
2018-07-28T07:18:51.862Z,34.1
2018-07-28T07:19:53.752Z,34
2018-07-28T07:20:56.186Z,34
2018-07-28T07:21:58.076Z,34
2018-07-28T07:23:00.256Z,33.9
2018-07-28T07:24:02.405Z,34.1
2018-07-28T07:25:04.586Z,34.1
2018-07-28T07:26:07.038Z,34.1
2018-07-28T07:27:09.218Z,34.2
2018-07-28T07:28:11.709Z,34.1
2018-07-28T07:29:14.167Z,34.2
2018-07-28T07:30:16.609Z,34.2
2018-07-28T07:31:18.801Z,34.1
2018-07-28T07:32:20.962Z,34.1
2018-07-28T07:33:23.142Z,33.9
2018-07-28T07:34:25.358Z,34.1
2018-07-28T07:35:27.539Z,34
2018-07-28T07:36:30.009Z,34
2018-07-28T07:37:32.449Z,34.1
2018-07-28T07:38:34.907Z,34.1
2018-07-28T07:39:36.812Z,34.2
2018-07-28T07:40:39.029Z,34.1
2018-07-28T07:41:41.146Z,34.1
2018-07-28T07:42:43.531Z,34.1
2018-07-28T07:43:45.417Z,34.2
2018-07-28T07:44:47.859Z,34.1
2018-07-28T07:45:50.058Z,34.1
2018-07-28T07:46:52.515Z,34.2
2018-07-28T07:47:54.142Z,34.1
2018-07-28T07:48:56.595Z,34.1
2018-07-28T07:49:59.060Z,34.1
2018-07-28T07:51:01.231Z,34.1
2018-07-28T07:52:03.420Z,34
2018-07-28T07:53:05.896Z,34.2
2018-07-28T07:54:08.068Z,34.1
2018-07-28T07:55:09.968Z,34
2018-07-28T07:56:12.145Z,34.3
2018-07-28T07:57:14.326Z,34.2
2018-07-28T07:58:16.783Z,34.3
2018-07-28T07:59:18.958Z,34.1
2018-07-28T08:00:20.866Z,34.2
2018-07-28T08:01:23.435Z,34.2
2018-07-28T08:02:25.662Z,34.2
2018-07-28T08:03:27.596Z,34
2018-07-28T08:04:29.884Z,34.1
2018-07-28T08:05:32.122Z,34.1
2018-07-28T08:06:34.702Z,34.2
2018-07-28T08:07:37.163Z,34.1
2018-07-28T08:08:39.608Z,34.1
2018-07-28T08:09:42.059Z,34.3
2018-07-28T08:10:44.235Z,34.1
2018-07-28T08:11:46.687Z,34.2
2018-07-28T08:12:49.158Z,34.1
2018-07-28T08:13:51.606Z,34
2018-07-28T08:14:53.800Z,34.1
2018-07-28T08:15:56.197Z,34
2018-07-28T08:16:58.407Z,34.1
2018-07-28T08:18:00.319Z,34.2
2018-07-28T08:19:02.536Z,34.2
2018-07-28T08:20:04.440Z,34.1
2018-07-28T08:21:07.040Z,34.3
2018-07-28T08:22:09.667Z,34
2018-07-28T08:23:12.113Z,34.2
2018-07-28T08:24:14.573Z,34.2
2018-07-28T08:25:17.023Z,34.2
2018-07-28T08:26:18.907Z,34.2
2018-07-28T08:27:21.082Z,34.1
2018-07-28T08:28:23.297Z,34.1
2018-07-28T08:29:25.184Z,34
2018-07-28T08:30:27.635Z,34
2018-07-28T08:31:29.560Z,34.1
2018-07-28T08:32:31.788Z,34
2018-07-28T08:33:34.249Z,34.2
2018-07-28T08:34:36.698Z,34.1
2018-07-28T08:35:38.873Z,34.1
2018-07-28T08:36:41.057Z,34.1
2018-07-28T08:37:43.267Z,34.1
2018-07-28T08:38:45.184Z,34.1
2018-07-28T08:39:47.783Z,34.1
2018-07-28T08:40:50.044Z,34.1
2018-07-28T08:41:52.248Z,34.2
2018-07-28T08:42:54.420Z,34.1
2018-07-28T08:43:56.587Z,34.1
2018-07-28T08:44:58.510Z,34.1
2018-07-28T08:46:00.689Z,34
2018-07-28T08:47:02.949Z,34.1
2018-07-28T08:48:05.121Z,34.2
2018-07-28T08:49:07.645Z,34
2018-07-28T08:50:10.880Z,34
2018-07-28T08:51:13.322Z,34.2
2018-07-28T08:52:15.517Z,34.1
2018-07-28T08:53:17.700Z,34
2018-07-28T08:54:20.148Z,34.2
2018-07-28T08:55:22.669Z,34
2018-07-28T08:56:25.171Z,34.2
2018-07-28T08:57:27.049Z,34
2018-07-28T08:58:29.497Z,34.1
2018-07-28T08:59:31.950Z,34.1
2018-07-28T09:00:34.395Z,34.1
2018-07-28T09:01:36.857Z,34.2
2018-07-28T09:02:39.038Z,34
2018-07-28T09:03:41.209Z,34.2
2018-07-28T09:04:43.664Z,34.1
2018-07-28T09:05:45.875Z,34.2
2018-07-28T09:06:48.320Z,34.1
2018-07-28T09:07:50.777Z,34.2
2018-07-28T09:08:53.242Z,34
2018-07-28T09:09:55.433Z,34.2
2018-07-28T09:10:57.898Z,34.1
2018-07-28T09:12:00.093Z,34.1
2018-07-28T09:13:02.278Z,34.1
2018-07-28T09:14:04.433Z,34.1
2018-07-28T09:15:06.629Z,34.2
2018-07-28T09:16:09.068Z,34.1
2018-07-28T09:17:11.538Z,34.1
2018-07-28T09:18:13.986Z,34.2
2018-07-28T09:19:16.450Z,34.2
2018-07-28T09:20:18.904Z,34.1
2018-07-28T09:21:21.080Z,34.1
2018-07-28T09:22:23.243Z,34.1
2018-07-28T09:23:25.870Z,34.1
2018-07-28T09:24:28.751Z,34.2
2018-07-28T09:25:31.185Z,34.3
2018-07-28T09:26:33.362Z,34.2
2018-07-28T09:27:35.826Z,34
2018-07-28T09:28:38.308Z,34.1
2018-07-28T09:29:40.236Z,34.2
2018-07-28T09:30:41.996Z,34.2
2018-07-28T09:31:45.013Z,34.2
2018-07-28T09:32:47.459Z,34.1
2018-07-28T09:33:49.647Z,34.2
2018-07-28T09:34:52.109Z,34.2
2018-07-28T09:35:53.974Z,34.1
2018-07-28T09:36:56.582Z,33.9
2018-07-28T09:37:58.877Z,34.2
2018-07-28T09:39:00.798Z,34.2
2018-07-28T09:40:02.988Z,34.2
2018-07-28T09:41:05.440Z,34.2
2018-07-28T09:42:07.889Z,34
2018-07-28T09:43:10.074Z,34.2
2018-07-28T09:44:12.522Z,34.2
2018-07-28T09:45:14.489Z,34.1
2018-07-28T09:46:16.759Z,34
2018-07-28T09:47:19.002Z,34.1
2018-07-28T09:48:21.476Z,34.2
2018-07-28T09:49:23.660Z,34.2
2018-07-28T09:50:25.854Z,34.3
2018-07-28T09:51:27.734Z,34.1
2018-07-28T09:52:30.199Z,34.2
2018-07-28T09:53:32.376Z,34.1
2018-07-28T09:54:34.558Z,34.1
2018-07-28T09:55:36.448Z,34.3
2018-07-28T09:56:38.887Z,34.2
2018-07-28T09:57:41.074Z,34.2
2018-07-28T09:58:43.533Z,34.2
2018-07-28T09:59:45.984Z,34.1
2018-07-28T10:00:48.156Z,34.2
2018-07-28T10:01:50.618Z,34.1
2018-07-28T10:02:53.085Z,34
2018-07-28T10:03:55.286Z,34.2
2018-07-28T10:04:57.521Z,34.1
2018-07-28T10:05:59.441Z,34.1
2018-07-28T10:07:01.637Z,34.3
2018-07-28T10:08:03.515Z,34.1
2018-07-28T10:09:05.700Z,34.1
2018-07-28T10:10:08.153Z,34.1
2018-07-28T10:11:10.072Z,34.3
2018-07-28T10:12:11.963Z,34.1
2018-07-28T10:13:13.888Z,34.3
2018-07-28T10:14:16.332Z,34.3
2018-07-28T10:15:18.508Z,34.3
2018-07-28T10:16:20.942Z,34.1
2018-07-28T10:17:23.855Z,34.3
2018-07-28T10:18:26.312Z,34.2
2018-07-28T10:19:28.495Z,34
2018-07-28T10:20:30.955Z,34.3
2018-07-28T10:21:32.846Z,34.3
2018-07-28T10:22:35.049Z,34.3
2018-07-28T10:23:37.236Z,34.3
2018-07-28T10:24:39.563Z,34.2
2018-07-28T10:25:42.335Z,34.2
2018-07-28T10:26:44.520Z,34.3
2018-07-28T10:27:46.978Z,34.2
2018-07-28T10:28:49.438Z,34.2
2018-07-28T10:29:51.885Z,34.2
2018-07-28T10:30:53.795Z,34.3
2018-07-28T10:31:55.943Z,34.3
2018-07-28T10:32:57.810Z,34.2
2018-07-28T10:33:59.992Z,34.2
2018-07-28T10:35:02.486Z,34.2
2018-07-28T10:36:04.938Z,34.2
2018-07-28T10:37:07.115Z,34.2
2018-07-28T10:38:09.037Z,34.2
2018-07-28T10:39:10.901Z,34.3
2018-07-28T10:40:12.798Z,34.3
2018-07-28T10:41:14.703Z,34.2
2018-07-28T10:42:16.857Z,34.3
2018-07-28T10:43:18.752Z,34.3
2018-07-28T10:44:20.928Z,34.1
2018-07-28T10:45:23.382Z,34.3
2018-07-28T10:46:24.994Z,34.2
2018-07-28T10:47:27.440Z,34.1
2018-07-28T10:48:29.902Z,34.2
2018-07-28T10:49:32.079Z,34.1
2018-07-28T10:50:34.253Z,34.3
2018-07-28T10:51:36.712Z,34.2
2018-07-28T10:52:39.192Z,34.2
2018-07-28T10:53:41.377Z,34.2
2018-07-28T10:54:43.558Z,34.2
2018-07-28T10:55:45.427Z,34.2
2018-07-28T10:56:47.327Z,34.3
2018-07-28T10:57:49.791Z,34.2
2018-07-28T10:58:51.963Z,34.1
2018-07-28T10:59:54.428Z,34.3
2018-07-28T11:00:56.947Z,34.2
2018-07-28T11:01:58.835Z,34.2
2018-07-28T11:03:00.470Z,34.3
2018-07-28T11:04:02.653Z,34.2
2018-07-28T11:05:04.559Z,34.2
2018-07-28T11:06:06.738Z,34.2
2018-07-28T11:07:08.667Z,34.1
2018-07-28T11:08:10.862Z,34.2
2018-07-28T11:09:13.439Z,34.3
2018-07-28T11:10:15.848Z,34.1
2018-07-28T11:11:17.747Z,34.3
2018-07-28T11:12:20.227Z,34.3
2018-07-28T11:13:22.135Z,34
2018-07-28T11:14:24.046Z,34.4
2018-07-28T11:15:26.217Z,34.1
2018-07-28T11:16:28.179Z,34.2
2018-07-28T11:17:30.328Z,34.1
2018-07-28T11:18:32.606Z,34.2
2018-07-28T11:19:35.085Z,34.2
2018-07-28T11:20:36.690Z,34.2
2018-07-28T11:21:38.865Z,34.3
2018-07-28T11:22:40.967Z,34.2
2018-07-28T11:23:43.839Z,34.3
2018-07-28T11:24:45.433Z,34.3
2018-07-28T11:25:47.903Z,34.3
2018-07-28T11:26:50.081Z,34.3
2018-07-28T11:27:52.528Z,34.2
2018-07-28T11:28:54.685Z,34.3
2018-07-28T11:29:56.589Z,34.1
2018-07-28T11:30:58.472Z,34.3
2018-07-28T11:32:00.927Z,34.1
2018-07-28T11:33:03.438Z,34.4
2018-07-28T11:34:05.621Z,34.3
2018-07-28T11:35:07.535Z,34.3
2018-07-28T11:36:09.421Z,34.2
2018-07-28T11:37:11.602Z,34.3
2018-07-28T11:38:13.751Z,34.1
2018-07-28T11:39:16.223Z,34.3
2018-07-28T11:40:18.383Z,34.4
2018-07-28T11:41:20.840Z,34.3
2018-07-28T11:42:23.024Z,34.2
2018-07-28T11:43:25.360Z,34.2
2018-07-28T11:44:27.528Z,34.2
2018-07-28T11:45:29.729Z,34.2
2018-07-28T11:46:31.909Z,34.2
2018-07-28T11:47:34.393Z,34.2
2018-07-28T11:48:36.647Z,34.3
2018-07-28T11:49:39.167Z,34.2
2018-07-28T11:50:41.137Z,34.1
2018-07-28T11:51:43.333Z,34.2
2018-07-28T11:52:45.797Z,34.1
2018-07-28T11:53:47.453Z,34.2
2018-07-28T11:54:49.949Z,34.2
2018-07-28T11:55:52.396Z,34.2
2018-07-28T11:56:54.867Z,34.3
2018-07-28T11:57:56.539Z,34.3
2018-07-28T11:58:58.864Z,34.1
2018-07-28T12:00:01.038Z,34.2
2018-07-28T12:01:03.496Z,34.2
2018-07-28T12:02:05.943Z,34.1
2018-07-28T12:03:08.401Z,34.3
2018-07-28T12:04:10.583Z,34.1
2018-07-28T12:05:13.039Z,34.2
2018-07-28T12:06:15.233Z,34.2
2018-07-28T12:07:17.416Z,34.1
2018-07-28T12:08:19.332Z,34.3
2018-07-28T12:09:21.813Z,34.2
2018-07-28T12:10:24.265Z,34.1
2018-07-28T12:11:26.210Z,34.2
2018-07-28T12:12:28.727Z,34.2
2018-07-28T12:13:30.595Z,34.2
2018-07-28T12:14:32.788Z,34.2
2018-07-28T12:15:35.053Z,34.2
2018-07-28T12:16:37.535Z,34.2
2018-07-28T12:17:39.769Z,34
2018-07-28T12:18:41.939Z,34.2
2018-07-28T12:19:44.378Z,34.2
2018-07-28T12:20:46.840Z,34.3
2018-07-28T12:21:49.292Z,34.2
2018-07-28T12:22:51.743Z,34.2
2018-07-28T12:23:54.280Z,34.3
2018-07-28T12:24:56.269Z,34.2
2018-07-28T12:25:58.755Z,34.2
2018-07-28T12:27:01.221Z,34.2
2018-07-28T12:28:03.404Z,34.1
2018-07-28T12:29:05.837Z,34.1
2018-07-28T12:30:08.028Z,34.2
2018-07-28T12:31:09.924Z,34.1
2018-07-28T12:32:12.101Z,34.1
2018-07-28T12:33:14.548Z,34.1
2018-07-28T12:34:17.003Z,34.2
2018-07-28T12:35:18.913Z,34.2
2018-07-28T12:36:21.366Z,34.2
2018-07-28T12:37:23.547Z,34.2
2018-07-28T12:38:25.446Z,34.3
2018-07-28T12:39:27.617Z,34.1
2018-07-28T12:40:29.827Z,34.3
2018-07-28T12:41:32.270Z,34.2
2018-07-28T12:42:34.457Z,34.2
2018-07-28T12:43:36.069Z,34.1
2018-07-28T12:44:38.244Z,34.3
2018-07-28T12:45:40.696Z,34.3
2018-07-28T12:46:42.613Z,34.2
2018-07-28T12:47:44.537Z,34.3
2018-07-28T12:48:47.011Z,34.3
2018-07-28T12:49:49.458Z,34.3
2018-07-28T12:50:51.636Z,34.2
2018-07-28T12:51:53.811Z,34.2
2018-07-28T12:52:56.246Z,34.1
2018-07-28T12:53:58.173Z,34.2
2018-07-28T12:55:00.343Z,34.2
2018-07-28T12:56:02.500Z,34.2
2018-07-28T12:57:04.951Z,34.1
2018-07-28T12:58:07.398Z,34.2
2018-07-28T12:59:09.567Z,34.1
2018-07-28T13:00:11.253Z,34.3
2018-07-28T13:01:13.708Z,34.3
2018-07-28T13:02:15.876Z,34.3
2018-07-28T13:03:18.047Z,34.2
2018-07-28T13:04:20.245Z,34.2
2018-07-28T13:05:22.432Z,34.1
2018-07-28T13:06:24.330Z,34.2
2018-07-28T13:07:26.778Z,34.1
2018-07-28T13:08:29.255Z,34.2
2018-07-28T13:09:31.500Z,34.2
2018-07-28T13:10:33.770Z,34.3
2018-07-28T13:11:36.085Z,34.1
2018-07-28T13:12:38.350Z,34.2
2018-07-28T13:13:40.509Z,34.1
2018-07-28T13:14:42.724Z,34.3
2018-07-28T13:15:45.293Z,34.2
2018-07-28T13:16:47.750Z,34.2
2018-07-28T13:17:49.960Z,34.2
2018-07-28T13:18:52.286Z,34.2
2018-07-28T13:19:54.463Z,34.2
2018-07-28T13:20:56.647Z,34.2
2018-07-28T13:21:58.835Z,34.2
2018-07-28T13:23:01.056Z,34.2
2018-07-28T13:24:03.529Z,34.3
2018-07-28T13:25:05.390Z,34.1
2018-07-28T13:26:07.012Z,34.4
2018-07-28T13:27:09.457Z,34.2
2018-07-28T13:28:11.362Z,34.3
2018-07-28T13:29:13.809Z,34.3
2018-07-28T13:30:16.267Z,34.1
2018-07-28T13:31:18.453Z,34.3
2018-07-28T13:32:20.902Z,34.2
2018-07-28T13:33:23.089Z,34.4
2018-07-28T13:34:25.531Z,34.3
2018-07-28T13:35:27.861Z,34.2
2018-07-28T13:36:30.694Z,34.2
2018-07-28T13:37:33.156Z,34.2
2018-07-28T13:38:35.326Z,34.2
2018-07-28T13:39:37.469Z,34.3
2018-07-28T13:40:39.647Z,34.2
2018-07-28T13:41:41.817Z,34.3
2018-07-28T13:42:44.269Z,34.3
2018-07-28T13:43:46.438Z,34.2
2018-07-28T13:44:48.915Z,34.2
2018-07-28T13:45:51.064Z,34.3
2018-07-28T13:46:52.957Z,34.3
2018-07-28T13:47:54.871Z,34.3
2018-07-28T13:48:57.319Z,34.3
2018-07-28T13:49:59.495Z,34.2